createdAt,value
2022-09-23T00:01:15.249Z,10.94
2022-09-23T00:03:49.161Z,10.94
2022-09-23T00:06:19.715Z,10.93
2022-09-23T00:08:49.683Z,10.92
2022-09-23T00:11:21.554Z,10.91
2022-09-23T00:13:52.480Z,10.88
2022-09-23T00:16:24.234Z,10.84
2022-09-23T00:18:51.936Z,10.81
2022-09-23T00:21:21.366Z,10.78
2022-09-23T00:23:49.244Z,10.75
2022-09-23T00:26:19.118Z,10.73
2022-09-23T00:28:47.442Z,10.71
2022-09-23T00:31:21.658Z,10.67
2022-09-23T00:34:07.424Z,10.65
2022-09-23T00:36:35.842Z,10.63
2022-09-23T00:39:04.696Z,10.62
2022-09-23T00:41:33.272Z,10.57
2022-09-23T00:44:02.392Z,10.53
2022-09-23T00:46:35.576Z,10.52
2022-09-23T00:49:17.819Z,10.50
2022-09-23T00:51:55.278Z,10.50
2022-09-23T00:54:25.973Z,10.50
2022-09-23T00:56:54.612Z,10.48
2022-09-23T00:59:24.469Z,10.48
2022-09-23T01:01:57.299Z,10.48
2022-09-23T01:04:28.006Z,10.46
2022-09-23T01:06:55.548Z,10.44
2022-09-23T01:09:25.318Z,10.40
2022-09-23T01:12:10.222Z,10.38
2022-09-23T01:14:52.925Z,10.34
2022-09-23T01:17:30.010Z,10.33
2022-09-23T01:20:08.702Z,10.30
2022-09-23T01:23:08.126Z,10.31
2022-09-23T01:26:00.424Z,10.29
2022-09-23T01:28:33.828Z,10.28
2022-09-23T01:31:17.782Z,10.27
2022-09-23T01:33:54.319Z,10.26
2022-09-23T01:36:39.567Z,10.24
2022-09-23T01:39:10.739Z,10.22
2022-09-23T01:42:09.699Z,10.18
2022-09-23T01:44:47.284Z,10.15
2022-09-23T01:47:30.948Z,10.10
2022-09-23T01:50:32.823Z,10.06
2022-09-23T01:53:06.849Z,10.02
2022-09-23T01:55:40.397Z,9.99
2022-09-23T01:58:14.375Z,9.96
2022-09-23T02:00:50.238Z,9.93
2022-09-23T02:03:26.917Z,9.93
2022-09-23T02:06:10.358Z,9.90
2022-09-23T02:08:44.685Z,9.89
2022-09-23T02:11:15.395Z,9.85
2022-09-23T02:13:48.990Z,9.80
2022-09-23T02:16:25.608Z,9.77
2022-09-23T02:19:19.628Z,9.74
2022-09-23T02:21:52.506Z,9.71
2022-09-23T02:24:26.054Z,9.68
2022-09-23T02:26:59.254Z,9.68
2022-09-23T02:29:44.202Z,9.68
2022-09-23T02:32:33.414Z,9.67
2022-09-23T02:35:33.318Z,9.64
2022-09-23T02:38:31.356Z,9.60
2022-09-23T02:41:15.476Z,9.54
2022-09-23T02:43:52.005Z,9.53
2022-09-23T02:46:20.539Z,9.49
2022-09-23T02:48:56.909Z,9.46
2022-09-23T02:51:25.871Z,9.45
2022-09-23T02:53:56.379Z,9.43
2022-09-23T02:56:24.441Z,9.43
2022-09-23T02:58:54.470Z,9.45
2022-09-23T03:01:56.572Z,9.44
2022-09-23T03:04:54.948Z,9.45
2022-09-23T03:07:50.486Z,9.44
2022-09-23T03:10:28.700Z,9.47
2022-09-23T03:13:29.956Z,9.50
2022-09-23T03:15:59.706Z,9.49
2022-09-23T03:18:48.126Z,9.48
2022-09-23T03:21:41.681Z,9.48
2022-09-23T03:24:10.883Z,9.48
2022-09-23T03:26:40.918Z,9.51
2022-09-23T03:29:11.314Z,9.52
2022-09-23T03:31:42.481Z,9.51
2022-09-23T03:34:24.435Z,9.49
2022-09-23T03:37:17.796Z,9.49
2022-09-23T03:39:53.524Z,9.49
2022-09-23T03:42:27.613Z,9.51
2022-09-23T03:44:57.383Z,9.54
2022-09-23T03:47:27.201Z,9.57
2022-09-23T03:49:56.845Z,9.63
2022-09-23T03:52:25.610Z,9.69
2022-09-23T03:54:53.628Z,9.71
2022-09-23T03:57:22.372Z,9.72
2022-09-23T03:59:54.337Z,9.75
2022-09-23T04:02:21.989Z,9.75
2022-09-23T04:04:49.627Z,9.79
2022-09-23T04:07:17.832Z,9.83
2022-09-23T04:09:45.355Z,9.87
2022-09-23T04:12:15.107Z,9.93
2022-09-23T04:14:43.016Z,9.97
2022-09-23T04:17:11.412Z,10.03
2022-09-23T04:19:39.229Z,10.10
2022-09-23T04:22:07.783Z,10.14
2022-09-23T04:24:35.599Z,10.18
2022-09-23T04:27:03.551Z,10.26
2022-09-23T04:29:31.127Z,10.31
2022-09-23T04:31:58.776Z,10.34
2022-09-23T04:34:26.509Z,10.37
2022-09-23T04:36:54.093Z,10.40
2022-09-23T04:39:21.667Z,10.43
2022-09-23T04:41:49.255Z,10.46
2022-09-23T04:44:17.462Z,10.50
2022-09-23T04:46:48.217Z,10.48
2022-09-23T04:49:16.518Z,10.48
2022-09-23T04:51:44.020Z,10.49
2022-09-23T04:54:12.802Z,10.50
2022-09-23T04:56:40.952Z,10.51
2022-09-23T04:59:08.795Z,10.50
2022-09-23T05:01:36.898Z,10.52
2022-09-23T05:04:07.380Z,10.55
2022-09-23T05:06:36.112Z,10.56
2022-09-23T05:09:06.556Z,10.56
2022-09-23T05:11:35.032Z,10.53
2022-09-23T05:14:03.155Z,10.51
2022-09-23T05:16:30.934Z,10.51
2022-09-23T05:18:59.499Z,10.52
2022-09-23T05:21:30.295Z,10.53
2022-09-23T05:24:01.198Z,10.57
2022-09-23T05:26:31.388Z,10.58
2022-09-23T05:28:59.355Z,10.57
2022-09-23T05:31:29.050Z,10.57
2022-09-23T05:33:59.003Z,10.58
2022-09-23T05:36:28.460Z,10.56
2022-09-23T05:38:56.811Z,10.53
2022-09-23T05:41:25.900Z,10.50
2022-09-23T05:43:55.060Z,10.46
2022-09-23T05:46:28.571Z,10.45
2022-09-23T05:49:02.199Z,10.42
2022-09-23T05:51:31.923Z,10.42
2022-09-23T05:54:03.275Z,10.43
2022-09-23T05:56:32.084Z,10.44
2022-09-23T05:59:01.895Z,10.46
2022-09-23T06:01:35.423Z,10.49
2022-09-23T06:04:05.988Z,10.50
2022-09-23T06:06:38.657Z,10.53
2022-09-23T06:09:08.298Z,10.56
2022-09-23T06:11:36.585Z,10.57
2022-09-23T06:14:04.411Z,10.59
2022-09-23T06:16:35.073Z,10.59
2022-09-23T06:19:06.332Z,10.58
2022-09-23T06:21:37.162Z,10.56
2022-09-23T06:24:05.153Z,10.56
2022-09-23T06:26:35.139Z,10.58
2022-09-23T06:29:04.732Z,10.59
2022-09-23T06:31:33.126Z,10.63
2022-09-23T06:34:12.157Z,10.65
2022-09-23T06:36:45.772Z,10.66
2022-09-23T06:39:14.909Z,10.68
2022-09-23T06:41:43.784Z,10.67
2022-09-23T06:44:15.227Z,10.70
2022-09-23T06:46:44.084Z,10.70
2022-09-23T06:49:12.265Z,10.72
2022-09-23T06:51:40.351Z,10.72
2022-09-23T06:54:08.200Z,10.70
2022-09-23T06:56:39.050Z,10.65
2022-09-23T06:59:09.802Z,10.65
2022-09-23T07:01:37.997Z,10.69
2022-09-23T07:04:07.635Z,10.71
2022-09-23T07:06:35.868Z,10.71
2022-09-23T07:09:05.361Z,10.70
2022-09-23T07:11:33.166Z,10.71
2022-09-23T07:14:00.649Z,10.74
2022-09-23T07:16:28.452Z,10.77
2022-09-23T07:18:56.051Z,10.79
2022-09-23T07:21:24.308Z,10.78
2022-09-23T07:23:52.114Z,10.81
2022-09-23T07:26:20.657Z,10.89
2022-09-23T07:28:48.466Z,10.96
2022-09-23T07:31:27.109Z,11.04
2022-09-23T07:34:03.740Z,11.12
2022-09-23T07:36:32.882Z,11.21
2022-09-23T07:39:02.318Z,11.32
2022-09-23T07:41:31.753Z,11.39
2022-09-23T07:44:00.649Z,11.48
2022-09-23T07:46:31.185Z,11.58
2022-09-23T07:48:59.187Z,11.70
2022-09-23T07:51:35.497Z,11.82
2022-09-23T07:54:07.460Z,11.92
2022-09-23T07:56:36.076Z,12.03
2022-09-23T07:59:05.086Z,12.55
2022-09-23T08:01:34.006Z,13.10
2022-09-23T08:04:10.558Z,13.64
2022-09-23T08:06:43.227Z,14.30
2022-09-23T08:09:11.873Z,15.20
2022-09-23T08:11:42.153Z,16.00
2022-09-23T08:14:12.757Z,16.12
2022-09-23T08:16:41.661Z,16.40
2022-09-23T08:19:09.452Z,16.90
2022-09-23T08:21:39.163Z,17.53
2022-09-23T08:24:12.924Z,18.25
2022-09-23T08:26:40.522Z,18.62
2022-09-23T08:29:10.199Z,18.79
2022-09-23T08:31:37.686Z,19.00
2022-09-23T08:34:05.356Z,18.88
2022-09-23T08:36:33.056Z,18.48
2022-09-23T08:39:00.661Z,18.01
2022-09-23T08:41:58.187Z,17.58
2022-09-23T08:44:37.881Z,17.09
2022-09-23T08:47:11.381Z,16.67
2022-09-23T08:49:44.532Z,16.69
2022-09-23T08:52:22.671Z,17.81
2022-09-23T08:54:55.133Z,18.99
2022-09-23T08:58:24.571Z,20.04
2022-09-23T09:01:05.762Z,21.16
2022-09-23T09:03:50.618Z,21.88
2022-09-23T09:06:52.320Z,22.53
2022-09-23T09:09:29.815Z,22.92
2022-09-23T09:12:05.008Z,23.46
2022-09-23T09:14:55.429Z,23.86
2022-09-23T09:17:45.872Z,24.15
2022-09-23T09:20:28.744Z,24.61
2022-09-23T09:23:00.599Z,25.16
2022-09-23T09:25:47.006Z,25.57
2022-09-23T09:28:24.660Z,25.55
2022-09-23T09:30:59.726Z,25.58
2022-09-23T09:33:47.267Z,25.43
2022-09-23T09:36:45.148Z,24.84
2022-09-23T09:39:14.525Z,25.27
2022-09-23T09:41:53.888Z,25.87
2022-09-23T09:44:29.230Z,26.07
2022-09-23T09:47:08.757Z,25.42
2022-09-23T09:50:02.013Z,26.00
2022-09-23T09:52:30.004Z,26.25
2022-09-23T09:55:12.478Z,25.58
2022-09-23T09:57:49.769Z,24.73
2022-09-23T10:00:19.312Z,24.04
2022-09-23T10:02:47.498Z,23.37
2022-09-23T10:05:32.117Z,22.80
2022-09-23T10:08:24.872Z,22.28
2022-09-23T10:10:59.447Z,22.36
2022-09-23T10:13:30.176Z,22.33
2022-09-23T10:16:00.854Z,22.10
2022-09-23T10:18:49.307Z,23.03
2022-09-23T10:21:27.592Z,23.93
2022-09-23T10:23:58.689Z,23.78
2022-09-23T10:26:32.553Z,23.04
2022-09-23T10:29:20.185Z,22.94
2022-09-23T10:31:47.799Z,24.06
2022-09-23T10:34:27.494Z,25.01
2022-09-23T10:37:03.448Z,25.63
2022-09-23T10:39:49.212Z,25.05
2022-09-23T10:43:01.389Z,24.01
2022-09-23T10:45:53.112Z,22.85
2022-09-23T10:48:44.746Z,21.63
2022-09-23T10:51:36.368Z,21.21
2022-09-23T10:54:21.775Z,22.44
2022-09-23T10:57:00.380Z,22.38
2022-09-23T10:59:59.768Z,22.05
2022-09-23T11:02:42.570Z,21.41
2022-09-23T11:05:15.289Z,20.85
2022-09-23T11:08:06.808Z,20.30
2022-09-23T11:10:48.625Z,19.90
2022-09-23T11:13:37.316Z,20.21
2022-09-23T11:16:31.113Z,21.79
2022-09-23T11:19:02.194Z,23.12
2022-09-23T11:21:35.616Z,24.09
2022-09-23T11:24:03.291Z,24.21
2022-09-23T11:26:55.786Z,24.68
2022-09-23T11:29:35.565Z,24.09
2022-09-23T11:32:18.851Z,24.78
2022-09-23T11:35:11.184Z,25.39
2022-09-23T11:38:05.103Z,24.59
2022-09-23T11:40:36.451Z,23.50
2022-09-23T11:43:23.598Z,22.32
2022-09-23T11:46:02.041Z,21.55
2022-09-23T11:48:50.832Z,20.97
2022-09-23T11:51:35.022Z,20.71
2022-09-23T11:54:12.400Z,20.71
2022-09-23T11:56:50.384Z,20.61
2022-09-23T11:59:40.651Z,20.51
2022-09-23T12:02:22.916Z,20.32
2022-09-23T12:05:22.343Z,19.92
2022-09-23T12:08:10.159Z,19.45
2022-09-23T12:10:55.378Z,18.87
2022-09-23T12:13:44.299Z,18.27
2022-09-23T12:16:30.457Z,17.81
2022-09-23T12:19:18.914Z,17.51
2022-09-23T12:22:12.649Z,17.18
2022-09-23T12:24:47.970Z,16.82
2022-09-23T12:27:24.489Z,16.75
2022-09-23T12:29:57.207Z,16.82
2022-09-23T12:32:25.322Z,16.91
2022-09-23T12:34:54.506Z,17.10
2022-09-23T12:37:43.365Z,17.39
2022-09-23T12:40:23.027Z,17.72
2022-09-23T12:42:51.281Z,18.09
2022-09-23T12:45:31.457Z,19.23
2022-09-23T12:47:59.693Z,20.64
2022-09-23T12:50:53.383Z,21.34
2022-09-23T12:53:33.426Z,21.34
2022-09-23T12:56:02.793Z,21.31
2022-09-23T12:58:42.250Z,22.06
2022-09-23T13:01:18.605Z,22.88
2022-09-23T13:04:09.755Z,23.55
2022-09-23T13:06:58.793Z,24.16
2022-09-23T13:09:30.843Z,24.58
2022-09-23T13:12:02.077Z,24.63
2022-09-23T13:14:32.817Z,24.77
2022-09-23T13:17:01.214Z,25.21
2022-09-23T13:19:28.703Z,25.59
2022-09-23T13:22:12.415Z,25.64
2022-09-23T13:24:43.117Z,25.45
2022-09-23T13:27:33.193Z,24.48
2022-09-23T13:30:14.383Z,23.53
2022-09-23T13:32:50.127Z,22.69
2022-09-23T13:35:30.569Z,22.02
2022-09-23T13:37:58.267Z,21.61
2022-09-23T13:40:29.232Z,21.56
2022-09-23T13:43:03.289Z,22.22
2022-09-23T13:45:32.239Z,22.78
2022-09-23T13:48:06.269Z,22.88
2022-09-23T13:50:38.465Z,23.17
2022-09-23T13:53:10.645Z,23.47
2022-09-23T13:55:40.058Z,23.62
2022-09-23T13:58:24.079Z,23.67
2022-09-23T14:00:52.070Z,23.72
2022-09-23T14:03:36.215Z,23.76
2022-09-23T14:06:09.269Z,23.81
2022-09-23T14:08:40.635Z,23.87
2022-09-23T14:11:08.289Z,23.94
2022-09-23T14:13:42.141Z,24.00
2022-09-23T14:16:15.020Z,23.89
2022-09-23T14:18:49.895Z,23.67
2022-09-23T14:21:27.335Z,23.39
2022-09-23T14:23:54.921Z,23.09
2022-09-23T14:26:24.540Z,22.95
2022-09-23T14:28:52.938Z,22.72
2022-09-23T14:31:20.595Z,22.54
2022-09-23T14:33:48.167Z,22.42
2022-09-23T14:36:37.525Z,22.32
2022-09-23T14:39:11.157Z,22.16
2022-09-23T14:41:42.926Z,21.87
2022-09-23T14:44:33.333Z,21.69
2022-09-23T14:47:01.037Z,21.49
2022-09-23T14:49:28.715Z,21.35
2022-09-23T14:52:02.918Z,21.25
2022-09-23T14:54:33.667Z,21.19
2022-09-23T14:57:03.060Z,21.03
2022-09-23T14:59:36.263Z,20.83
2022-09-23T15:02:31.274Z,20.58
2022-09-23T15:05:21.588Z,20.31
2022-09-23T15:07:55.694Z,20.20
2022-09-23T15:10:28.247Z,20.21
2022-09-23T15:13:08.616Z,20.28
2022-09-23T15:15:36.677Z,20.25
2022-09-23T15:18:08.186Z,20.19
2022-09-23T15:20:36.179Z,20.01
2022-09-23T15:23:03.868Z,19.79
2022-09-23T15:25:31.394Z,19.55
2022-09-23T15:28:16.825Z,19.28
2022-09-23T15:30:44.666Z,19.04
2022-09-23T15:33:15.065Z,18.84
2022-09-23T15:35:46.843Z,18.63
2022-09-23T15:38:14.744Z,18.38
2022-09-23T15:40:42.316Z,18.12
2022-09-23T15:43:20.483Z,17.85
2022-09-23T15:45:53.570Z,17.71
2022-09-23T15:48:24.492Z,17.66
2022-09-23T15:50:54.407Z,17.62
2022-09-23T15:53:31.594Z,17.61
2022-09-23T15:55:59.145Z,17.65
2022-09-23T15:58:27.716Z,17.68
2022-09-23T16:00:57.242Z,17.73
2022-09-23T16:03:28.696Z,17.72
2022-09-23T16:06:00.251Z,17.69
2022-09-23T16:08:28.828Z,17.67
2022-09-23T16:10:56.470Z,17.66
2022-09-23T16:13:24.640Z,17.66
2022-09-23T16:15:52.186Z,17.62
2022-09-23T16:18:20.241Z,17.55
2022-09-23T16:20:49.541Z,17.47
2022-09-23T16:23:37.609Z,17.42
2022-09-23T16:26:15.397Z,17.42
2022-09-23T16:28:43.942Z,17.41
2022-09-23T16:31:12.019Z,17.35
2022-09-23T16:33:39.957Z,17.27
2022-09-23T16:36:14.689Z,17.14
2022-09-23T16:38:42.440Z,17.00
2022-09-23T16:41:11.372Z,16.93
2022-09-23T16:43:42.475Z,16.82
2022-09-23T16:46:15.625Z,16.72
2022-09-23T16:48:48.278Z,16.64
2022-09-23T16:51:21.177Z,16.56
2022-09-23T16:53:50.675Z,16.50
2022-09-23T16:56:25.663Z,16.43
2022-09-23T16:58:55.496Z,16.34
2022-09-23T17:01:47.209Z,16.29
2022-09-23T17:04:16.755Z,16.24
2022-09-23T17:06:50.313Z,16.24
2022-09-23T17:09:24.738Z,16.25
2022-09-23T17:12:20.485Z,16.31
2022-09-23T17:14:48.189Z,16.35
2022-09-23T17:17:15.693Z,16.38
2022-09-23T17:19:43.213Z,16.38
2022-09-23T17:22:11.525Z,16.39
2022-09-23T17:24:39.107Z,16.30
2022-09-23T17:27:06.631Z,16.23
2022-09-23T17:29:34.224Z,16.16
2022-09-23T17:32:02.064Z,16.10
2022-09-23T17:34:29.962Z,16.04
2022-09-23T17:36:57.452Z,15.92
2022-09-23T17:39:24.973Z,15.82
2022-09-23T17:41:53.007Z,15.74
2022-09-23T17:44:20.603Z,15.62
2022-09-23T17:46:49.282Z,15.50
2022-09-23T17:49:18.200Z,15.41
2022-09-23T17:51:45.736Z,15.33
2022-09-23T17:54:15.094Z,15.23
2022-09-23T17:56:42.771Z,15.11
2022-09-23T17:59:12.717Z,15.04
2022-09-23T18:01:40.362Z,14.94
2022-09-23T18:04:08.085Z,14.84
2022-09-23T18:06:37.203Z,14.76
2022-09-23T18:09:07.193Z,14.69
2022-09-23T18:11:41.030Z,14.60
2022-09-23T18:14:14.509Z,14.52
2022-09-23T18:16:45.672Z,14.45
2022-09-23T18:19:16.169Z,14.38
2022-09-23T18:21:46.032Z,14.27
2022-09-23T18:27:01.878Z,14.09
2022-09-23T18:29:29.689Z,14.05
2022-09-23T18:31:58.877Z,14.01
2022-09-23T18:34:26.583Z,13.95
2022-09-23T18:36:56.154Z,13.93
2022-09-23T18:39:23.767Z,13.89
2022-09-23T18:41:51.294Z,13.88
2022-09-23T18:44:20.012Z,13.86
2022-09-23T18:46:47.511Z,13.82
2022-09-23T18:49:33.249Z,13.82
2022-09-23T18:52:01.089Z,13.83
2022-09-23T18:54:29.157Z,13.84
2022-09-23T18:56:57.730Z,13.88
2022-09-23T18:59:29.606Z,13.89
2022-09-23T19:01:57.689Z,13.90
2022-09-23T19:04:26.763Z,13.89
2022-09-23T19:06:56.686Z,13.89
2022-09-23T19:09:24.749Z,13.87
2022-09-23T19:11:52.888Z,13.88
2022-09-23T19:14:20.707Z,13.89
2022-09-23T19:16:51.811Z,13.87
2022-09-23T19:19:19.524Z,13.85
2022-09-23T19:21:47.106Z,13.83
2022-09-23T19:24:19.844Z,13.78
2022-09-23T19:26:48.529Z,13.74
2022-09-23T19:29:19.687Z,13.67
2022-09-23T19:31:48.501Z,13.61
2022-09-23T19:34:18.186Z,13.53
2022-09-23T19:36:47.333Z,13.49
2022-09-23T19:39:23.393Z,13.42
2022-09-23T19:41:52.632Z,13.39
2022-09-23T19:44:20.346Z,13.38
2022-09-23T19:46:55.032Z,13.37
2022-09-23T19:49:25.446Z,13.30
2022-09-23T19:51:56.039Z,13.28
2022-09-23T19:54:26.618Z,13.29
2022-09-23T19:56:54.217Z,13.28
2022-09-23T19:59:21.720Z,13.24
2022-09-23T20:01:49.634Z,13.22
2022-09-23T20:04:17.455Z,13.16
2022-09-23T20:06:46.161Z,13.14
2022-09-23T20:09:13.926Z,13.13
2022-09-23T20:11:44.218Z,13.10
2022-09-23T20:14:13.071Z,13.07
2022-09-23T20:16:40.668Z,13.01
2022-09-23T20:19:09.908Z,12.96
2022-09-23T20:21:38.085Z,12.90
2022-09-23T20:24:07.061Z,12.83
2022-09-23T20:26:53.236Z,12.75
2022-09-23T20:29:20.813Z,12.66
2022-09-23T20:31:48.341Z,12.55
2022-09-23T20:34:16.255Z,12.51
2022-09-23T20:36:44.279Z,12.46
2022-09-23T20:39:11.756Z,12.42
2022-09-23T20:41:39.514Z,12.34
2022-09-23T20:44:12.445Z,12.28
2022-09-23T20:46:47.816Z,12.23
2022-09-23T20:49:17.248Z,12.20
2022-09-23T20:51:45.186Z,12.14
2022-09-23T20:54:12.708Z,12.10
2022-09-23T20:56:40.264Z,12.08
2022-09-23T20:59:09.486Z,12.04
2022-09-23T21:01:37.173Z,11.96
2022-09-23T21:04:06.059Z,11.91
2022-09-23T21:06:35.474Z,11.88
2022-09-23T21:09:04.160Z,11.83
2022-09-23T21:11:32.232Z,11.81
2022-09-23T21:14:01.264Z,11.75
2022-09-23T21:16:29.596Z,11.69
2022-09-23T21:18:58.038Z,11.68
2022-09-23T21:21:26.054Z,11.66
2022-09-23T21:23:53.542Z,11.64
2022-09-23T21:26:23.616Z,11.59
2022-09-23T21:28:54.102Z,11.57
2022-09-23T21:31:25.597Z,11.54
2022-09-23T21:33:59.182Z,11.51
2022-09-23T21:36:28.474Z,11.47
2022-09-23T21:38:56.245Z,11.44
2022-09-23T21:41:23.991Z,11.43
2022-09-23T21:43:51.520Z,11.41
2022-09-23T21:46:20.796Z,11.40
2022-09-23T21:48:53.597Z,11.37
2022-09-23T21:51:26.697Z,11.34
2022-09-23T21:53:56.937Z,11.30
2022-09-23T21:56:29.695Z,11.26
2022-09-23T21:58:59.906Z,11.18
2022-09-23T22:01:30.941Z,11.13
2022-09-23T22:04:08.603Z,11.08
2022-09-23T22:06:38.356Z,11.03
2022-09-23T22:09:09.091Z,11.02
2022-09-23T22:11:55.834Z,11.03
2022-09-23T22:14:26.062Z,11.00
2022-09-23T22:16:59.209Z,10.96
2022-09-23T22:19:35.173Z,10.95
2022-09-23T22:22:13.537Z,10.91
2022-09-23T22:24:42.418Z,10.86
2022-09-23T22:27:11.681Z,10.81
2022-09-23T22:29:58.194Z,10.75
2022-09-23T22:32:40.859Z,10.70
2022-09-23T22:35:14.107Z,10.66
2022-09-23T22:37:41.706Z,10.61
2022-09-23T22:40:14.302Z,10.58
2022-09-23T22:42:42.926Z,10.53
2022-09-23T22:45:11.516Z,10.49
2022-09-23T22:47:40.760Z,10.49
2022-09-23T22:50:09.400Z,10.48
2022-09-23T22:52:37.971Z,10.49
2022-09-23T22:55:08.178Z,10.50
2022-09-23T22:57:36.777Z,10.46
2022-09-23T23:00:08.545Z,10.40
2022-09-23T23:02:36.865Z,10.33
2022-09-23T23:05:04.629Z,10.30
2022-09-23T23:07:32.246Z,10.29
2022-09-23T23:09:59.720Z,10.27
2022-09-23T23:12:27.278Z,10.22
2022-09-23T23:14:55.623Z,10.19
2022-09-23T23:17:23.196Z,10.17
2022-09-23T23:19:50.928Z,10.15
2022-09-23T23:22:18.518Z,10.13
2022-09-23T23:24:46.011Z,10.07
2022-09-23T23:27:13.505Z,10.04
2022-09-23T23:29:41.014Z,10.03
2022-09-23T23:32:09.847Z,9.98
2022-09-23T23:34:37.936Z,9.94
2022-09-23T23:37:05.762Z,9.88
2022-09-23T23:39:33.873Z,9.83
2022-09-23T23:42:01.497Z,9.79
2022-09-23T23:44:31.190Z,9.75
2022-09-23T23:46:58.873Z,9.75
2022-09-23T23:49:26.402Z,9.70
2022-09-23T23:51:53.962Z,9.66
2022-09-23T23:54:21.550Z,9.62
2022-09-23T23:56:49.241Z,9.57
2022-09-23T23:59:18.463Z,9.55
